sensor_id;sensor_type;location;lat;lon;timestamp;P1;durP1;ratioP1;P2;durP2;ratioP2
27408;SDS011;20413;50.782;7.152;2023-03-23T00:01:02;1.83;;;1.10;;
27408;SDS011;20413;50.782;7.152;2023-03-23T00:03:28;3.70;;;1.17;;
27408;SDS011;20413;50.782;7.152;2023-03-23T00:08:27;1.92;;;1.10;;
27408;SDS011;20413;50.782;7.152;2023-03-23T00:10:53;3.22;;;0.98;;
27408;SDS011;20413;50.782;7.152;2023-03-23T00:15:47;2.92;;;1.17;;
27408;SDS011;20413;50.782;7.152;2023-03-23T00:18:22;2.92;;;1.08;;
27408;SDS011;20413;50.782;7.152;2023-03-23T00:20:49;2.38;;;1.05;;
27408;SDS011;20413;50.782;7.152;2023-03-23T00:23:16;2.45;;;1.00;;
27408;SDS011;20413;50.782;7.152;2023-03-23T00:25:47;4.15;;;1.23;;
27408;SDS011;20413;50.782;7.152;2023-03-23T00:28:13;2.78;;;1.13;;
27408;SDS011;20413;50.782;7.152;2023-03-23T00:30:39;1.58;;;0.80;;
27408;SDS011;20413;50.782;7.152;2023-03-23T00:33:06;1.52;;;0.93;;
27408;SDS011;20413;50.782;7.152;2023-03-23T00:35:33;1.13;;;0.73;;
27408;SDS011;20413;50.782;7.152;2023-03-23T00:38:01;1.63;;;0.70;;
27408;SDS011;20413;50.782;7.152;2023-03-23T00:40:27;1.10;;;1.00;;
27408;SDS011;20413;50.782;7.152;2023-03-23T00:42:53;3.17;;;0.95;;
27408;SDS011;20413;50.782;7.152;2023-03-23T00:45:19;2.60;;;1.27;;
27408;SDS011;20413;50.782;7.152;2023-03-23T00:47:45;1.85;;;1.00;;
27408;SDS011;20413;50.782;7.152;2023-03-23T00:50:11;2.17;;;1.10;;
27408;SDS011;20413;50.782;7.152;2023-03-23T00:52:38;0.88;;;0.88;;
27408;SDS011;20413;50.782;7.152;2023-03-23T00:55:04;2.15;;;1.08;;
27408;SDS011;20413;50.782;7.152;2023-03-23T00:57:31;1.52;;;0.88;;
27408;SDS011;20413;50.782;7.152;2023-03-23T00:59:57;2.75;;;1.10;;
27408;SDS011;20413;50.782;7.152;2023-03-23T01:02:23;3.03;;;0.93;;
27408;SDS011;20413;50.782;7.152;2023-03-23T01:04:51;2.42;;;0.95;;
27408;SDS011;20413;50.782;7.152;2023-03-23T01:07:18;1.88;;;1.02;;
27408;SDS011;20413;50.782;7.152;2023-03-23T01:09:44;1.55;;;0.85;;
27408;SDS011;20413;50.782;7.152;2023-03-23T01:12:10;2.42;;;0.82;;
27408;SDS011;20413;50.782;7.152;2023-03-23T01:14:36;1.98;;;1.05;;
27408;SDS011;20413;50.782;7.152;2023-03-23T01:17:02;1.70;;;1.05;;
27408;SDS011;20413;50.782;7.152;2023-03-23T01:19:28;3.38;;;1.10;;
27408;SDS011;20413;50.782;7.152;2023-03-23T01:21:54;2.35;;;0.88;;
27408;SDS011;20413;50.782;7.152;2023-03-23T01:24:20;0.68;;;0.57;;
27408;SDS011;20413;50.782;7.152;2023-03-23T01:26:47;0.85;;;0.82;;
27408;SDS011;20413;50.782;7.152;2023-03-23T01:29:13;1.92;;;0.88;;
27408;SDS011;20413;50.782;7.152;2023-03-23T01:31:38;2.55;;;1.05;;
27408;SDS011;20413;50.782;7.152;2023-03-23T01:34:05;2.42;;;0.82;;
27408;SDS011;20413;50.782;7.152;2023-03-23T01:36:31;1.90;;;1.20;;
27408;SDS011;20413;50.782;7.152;2023-03-23T01:39:01;4.38;;;1.40;;
27408;SDS011;20413;50.782;7.152;2023-03-23T01:41:28;1.55;;;1.00;;
27408;SDS011;20413;50.782;7.152;2023-03-23T01:43:58;0.90;;;0.82;;
27408;SDS011;20413;50.782;7.152;2023-03-23T01:46:26;2.65;;;1.20;;
27408;SDS011;20413;50.782;7.152;2023-03-23T01:48:53;2.03;;;0.90;;
27408;SDS011;20413;50.782;7.152;2023-03-23T01:51:19;1.63;;;0.88;;
27408;SDS011;20413;50.782;7.152;2023-03-23T01:53:48;2.83;;;1.00;;
27408;SDS011;20413;50.782;7.152;2023-03-23T01:56:17;1.73;;;1.08;;
27408;SDS011;20413;50.782;7.152;2023-03-23T01:58:45;1.10;;;1.00;;
27408;SDS011;20413;50.782;7.152;2023-03-23T02:01:12;2.38;;;1.00;;
27408;SDS011;20413;50.782;7.152;2023-03-23T02:03:41;2.53;;;1.15;;
27408;SDS011;20413;50.782;7.152;2023-03-23T02:06:08;1.70;;;1.00;;
27408;SDS011;20413;50.782;7.152;2023-03-23T02:08:35;3.45;;;0.90;;
27408;SDS011;20413;50.782;7.152;2023-03-23T02:11:01;3.00;;;1.10;;
27408;SDS011;20413;50.782;7.152;2023-03-23T02:13:30;2.70;;;1.08;;
27408;SDS011;20413;50.782;7.152;2023-03-23T02:18:40;1.35;;;0.90;;
27408;SDS011;20413;50.782;7.152;2023-03-23T02:26:46;2.88;;;0.90;;
27408;SDS011;20413;50.782;7.152;2023-03-23T02:29:18;1.00;;;0.85;;
27408;SDS011;20413;50.782;7.152;2023-03-23T02:31:52;1.83;;;1.10;;
27408;SDS011;20413;50.782;7.152;2023-03-23T02:34:28;2.05;;;0.70;;
27408;SDS011;20413;50.782;7.152;2023-03-23T02:36:58;1.67;;;0.90;;
27408;SDS011;20413;50.782;7.152;2023-03-23T02:39:37;1.50;;;0.90;;
27408;SDS011;20413;50.782;7.152;2023-03-23T02:42:07;1.02;;;0.90;;
27408;SDS011;20413;50.782;7.152;2023-03-23T02:44:34;1.40;;;0.77;;
27408;SDS011;20413;50.782;7.152;2023-03-23T02:47:02;1.85;;;0.82;;
27408;SDS011;20413;50.782;7.152;2023-03-23T02:49:29;1.40;;;0.80;;
27408;SDS011;20413;50.782;7.152;2023-03-23T02:51:56;1.02;;;0.95;;
27408;SDS011;20413;50.782;7.152;2023-03-23T02:54:23;1.02;;;0.80;;
27408;SDS011;20413;50.782;7.152;2023-03-23T02:56:50;2.15;;;0.90;;
27408;SDS011;20413;50.782;7.152;2023-03-23T02:59:17;1.20;;;0.82;;
27408;SDS011;20413;50.782;7.152;2023-03-23T03:04:10;2.08;;;0.90;;
27408;SDS011;20413;50.782;7.152;2023-03-23T03:09:36;2.33;;;1.08;;
27408;SDS011;20413;50.782;7.152;2023-03-23T03:12:08;1.67;;;1.00;;
27408;SDS011;20413;50.782;7.152;2023-03-23T03:14:37;1.45;;;0.95;;
27408;SDS011;20413;50.782;7.152;2023-03-23T03:17:06;3.80;;;1.27;;
27408;SDS011;20413;50.782;7.152;2023-03-23T03:19:40;1.63;;;0.75;;
27408;SDS011;20413;50.782;7.152;2023-03-23T03:22:06;1.13;;;1.02;;
27408;SDS011;20413;50.782;7.152;2023-03-23T03:24:33;2.65;;;1.25;;
27408;SDS011;20413;50.782;7.152;2023-03-23T03:27:02;2.50;;;1.10;;
27408;SDS011;20413;50.782;7.152;2023-03-23T03:29:35;1.20;;;0.90;;
27408;SDS011;20413;50.782;7.152;2023-03-23T03:32:03;2.60;;;0.90;;
27408;SDS011;20413;50.782;7.152;2023-03-23T03:34:30;3.00;;;1.10;;
27408;SDS011;20413;50.782;7.152;2023-03-23T03:36:57;1.27;;;0.90;;
27408;SDS011;20413;50.782;7.152;2023-03-23T03:39:24;2.28;;;1.20;;
27408;SDS011;20413;50.782;7.152;2023-03-23T03:41:50;1.60;;;1.02;;
27408;SDS011;20413;50.782;7.152;2023-03-23T03:44:16;1.17;;;1.08;;
27408;SDS011;20413;50.782;7.152;2023-03-23T03:46:42;2.20;;;1.20;;
27408;SDS011;20413;50.782;7.152;2023-03-23T03:49:09;2.65;;;1.10;;
27408;SDS011;20413;50.782;7.152;2023-03-23T03:51:37;3.03;;;1.00;;
27408;SDS011;20413;50.782;7.152;2023-03-23T03:54:03;1.42;;;1.10;;
27408;SDS011;20413;50.782;7.152;2023-03-23T03:56:29;3.25;;;1.20;;
27408;SDS011;20413;50.782;7.152;2023-03-23T03:58:56;3.40;;;1.38;;
27408;SDS011;20413;50.782;7.152;2023-03-23T04:01:22;1.27;;;1.00;;
27408;SDS011;20413;50.782;7.152;2023-03-23T04:03:49;3.08;;;1.38;;
27408;SDS011;20413;50.782;7.152;2023-03-23T04:06:15;2.97;;;1.20;;
27408;SDS011;20413;50.782;7.152;2023-03-23T04:08:42;2.40;;;1.13;;
27408;SDS011;20413;50.782;7.152;2023-03-23T04:11:09;1.75;;;1.13;;
27408;SDS011;20413;50.782;7.152;2023-03-23T04:13:37;3.72;;;1.20;;
27408;SDS011;20413;50.782;7.152;2023-03-23T04:16:03;3.28;;;1.10;;
27408;SDS011;20413;50.782;7.152;2023-03-23T04:18:29;2.10;;;1.02;;
27408;SDS011;20413;50.782;7.152;2023-03-23T04:20:57;1.45;;;0.95;;
27408;SDS011;20413;50.782;7.152;2023-03-23T04:23:24;1.17;;;1.08;;
27408;SDS011;20413;50.782;7.152;2023-03-23T04:25:50;3.03;;;1.13;;
27408;SDS011;20413;50.782;7.152;2023-03-23T04:28:18;1.08;;;1.02;;
27408;SDS011;20413;50.782;7.152;2023-03-23T04:30:48;1.27;;;0.80;;
27408;SDS011;20413;50.782;7.152;2023-03-23T04:33:17;1.35;;;1.10;;
27408;SDS011;20413;50.782;7.152;2023-03-23T04:35:44;2.88;;;1.30;;
27408;SDS011;20413;50.782;7.152;2023-03-23T04:38:10;1.23;;;1.13;;
27408;SDS011;20413;50.782;7.152;2023-03-23T04:40:37;1.30;;;1.20;;
27408;SDS011;20413;50.782;7.152;2023-03-23T04:43:03;1.02;;;1.00;;
27408;SDS011;20413;50.782;7.152;2023-03-23T04:45:30;0.80;;;0.80;;
27408;SDS011;20413;50.782;7.152;2023-03-23T04:47:56;1.75;;;1.30;;
27408;SDS011;20413;50.782;7.152;2023-03-23T04:50:23;2.80;;;1.05;;
27408;SDS011;20413;50.782;7.152;2023-03-23T04:52:49;1.67;;;1.35;;
27408;SDS011;20413;50.782;7.152;2023-03-23T04:55:16;1.80;;;1.10;;
27408;SDS011;20413;50.782;7.152;2023-03-23T04:57:42;1.98;;;1.30;;
27408;SDS011;20413;50.782;7.152;2023-03-23T05:00:09;1.70;;;1.60;;
27408;SDS011;20413;50.782;7.152;2023-03-23T05:02:39;2.00;;;1.30;;
27408;SDS011;20413;50.782;7.152;2023-03-23T05:05:06;1.45;;;1.05;;
27408;SDS011;20413;50.782;7.152;2023-03-23T05:07:32;1.85;;;0.80;;
27408;SDS011;20413;50.782;7.152;2023-03-23T05:09:58;1.77;;;1.13;;
27408;SDS011;20413;50.782;7.152;2023-03-23T05:12:24;1.35;;;1.17;;
27408;SDS011;20413;50.782;7.152;2023-03-23T05:14:51;1.63;;;1.00;;
27408;SDS011;20413;50.782;7.152;2023-03-23T05:17:17;2.95;;;1.42;;
27408;SDS011;20413;50.782;7.152;2023-03-23T05:19:43;4.45;;;1.30;;
27408;SDS011;20413;50.782;7.152;2023-03-23T05:22:12;1.85;;;1.35;;
27408;SDS011;20413;50.782;7.152;2023-03-23T05:24:39;1.75;;;1.00;;
27408;SDS011;20413;50.782;7.152;2023-03-23T05:27:05;2.63;;;1.10;;
27408;SDS011;20413;50.782;7.152;2023-03-23T05:29:33;1.77;;;1.40;;
27408;SDS011;20413;50.782;7.152;2023-03-23T05:32:00;1.75;;;1.30;;
27408;SDS011;20413;50.782;7.152;2023-03-23T05:34:27;2.65;;;1.20;;
27408;SDS011;20413;50.782;7.152;2023-03-23T05:36:54;1.88;;;1.30;;
27408;SDS011;20413;50.782;7.152;2023-03-23T05:39:22;1.83;;;1.25;;
27408;SDS011;20413;50.782;7.152;2023-03-23T05:41:48;3.72;;;1.73;;
27408;SDS011;20413;50.782;7.152;2023-03-23T05:44:14;2.10;;;1.30;;
27408;SDS011;20413;50.782;7.152;2023-03-23T05:46:40;1.48;;;1.38;;
27408;SDS011;20413;50.782;7.152;2023-03-23T05:49:06;2.00;;;1.05;;
27408;SDS011;20413;50.782;7.152;2023-03-23T05:51:32;1.30;;;1.10;;
27408;SDS011;20413;50.782;7.152;2023-03-23T05:53:58;2.38;;;1.20;;
27408;SDS011;20413;50.782;7.152;2023-03-23T05:56:24;1.83;;;1.13;;
27408;SDS011;20413;50.782;7.152;2023-03-23T05:58:50;1.30;;;0.98;;
27408;SDS011;20413;50.782;7.152;2023-03-23T06:01:17;2.33;;;1.20;;
27408;SDS011;20413;50.782;7.152;2023-03-23T06:03:43;2.67;;;1.10;;
27408;SDS011;20413;50.782;7.152;2023-03-23T06:06:10;1.90;;;1.13;;
27408;SDS011;20413;50.782;7.152;2023-03-23T06:08:36;2.85;;;1.05;;
27408;SDS011;20413;50.782;7.152;2023-03-23T06:11:03;2.25;;;1.00;;
27408;SDS011;20413;50.782;7.152;2023-03-23T06:13:29;4.55;;;1.33;;
27408;SDS011;20413;50.782;7.152;2023-03-23T06:15:56;4.45;;;1.00;;
27408;SDS011;20413;50.782;7.152;2023-03-23T06:18:22;2.08;;;1.30;;
27408;SDS011;20413;50.782;7.152;2023-03-23T06:20:48;2.72;;;1.08;;
27408;SDS011;20413;50.782;7.152;2023-03-23T06:23:14;2.33;;;1.10;;
27408;SDS011;20413;50.782;7.152;2023-03-23T06:25:40;2.15;;;1.27;;
27408;SDS011;20413;50.782;7.152;2023-03-23T06:28:06;0.95;;;0.85;;
27408;SDS011;20413;50.782;7.152;2023-03-23T06:30:34;1.02;;;0.93;;
27408;SDS011;20413;50.782;7.152;2023-03-23T06:33:00;1.83;;;1.25;;
27408;SDS011;20413;50.782;7.152;2023-03-23T06:35:27;2.53;;;1.17;;
27408;SDS011;20413;50.782;7.152;2023-03-23T06:37:53;2.42;;;1.00;;
27408;SDS011;20413;50.782;7.152;2023-03-23T06:40:19;1.17;;;0.77;;
27408;SDS011;20413;50.782;7.152;2023-03-23T06:42:46;2.45;;;1.00;;
27408;SDS011;20413;50.782;7.152;2023-03-23T06:45:12;2.42;;;0.90;;
27408;SDS011;20413;50.782;7.152;2023-03-23T06:47:38;1.50;;;0.88;;
27408;SDS011;20413;50.782;7.152;2023-03-23T06:50:04;2.20;;;1.08;;
27408;SDS011;20413;50.782;7.152;2023-03-23T06:52:30;2.22;;;1.17;;
27408;SDS011;20413;50.782;7.152;2023-03-23T06:54:56;2.10;;;1.05;;
27408;SDS011;20413;50.782;7.152;2023-03-23T06:57:22;2.55;;;1.02;;
27408;SDS011;20413;50.782;7.152;2023-03-23T06:59:48;3.05;;;1.35;;
27408;SDS011;20413;50.782;7.152;2023-03-23T07:02:14;0.98;;;0.80;;
27408;SDS011;20413;50.782;7.152;2023-03-23T07:04:40;1.35;;;1.00;;
27408;SDS011;20413;50.782;7.152;2023-03-23T07:07:07;3.30;;;1.10;;
27408;SDS011;20413;50.782;7.152;2023-03-23T07:09:33;4.55;;;1.75;;
27408;SDS011;20413;50.782;7.152;2023-03-23T07:11:59;2.90;;;1.40;;
27408;SDS011;20413;50.782;7.152;2023-03-23T07:14:26;2.17;;;0.82;;
27408;SDS011;20413;50.782;7.152;2023-03-23T07:16:52;3.65;;;1.30;;
27408;SDS011;20413;50.782;7.152;2023-03-23T07:19:18;3.40;;;1.40;;
27408;SDS011;20413;50.782;7.152;2023-03-23T07:21:44;2.17;;;1.00;;
27408;SDS011;20413;50.782;7.152;2023-03-23T07:24:11;0.80;;;0.80;;
27408;SDS011;20413;50.782;7.152;2023-03-23T07:26:41;3.70;;;1.48;;
27408;SDS011;20413;50.782;7.152;2023-03-23T07:29:08;2.08;;;1.42;;
27408;SDS011;20413;50.782;7.152;2023-03-23T07:31:34;2.63;;;1.42;;
27408;SDS011;20413;50.782;7.152;2023-03-23T07:34:01;3.58;;;2.33;;
27408;SDS011;20413;50.782;7.152;2023-03-23T07:36:27;2.50;;;1.67;;
27408;SDS011;20413;50.782;7.152;2023-03-23T07:38:54;4.53;;;2.30;;
27408;SDS011;20413;50.782;7.152;2023-03-23T07:41:20;4.68;;;1.38;;
27408;SDS011;20413;50.782;7.152;2023-03-23T07:43:46;3.22;;;1.20;;
27408;SDS011;20413;50.782;7.152;2023-03-23T07:46:12;2.22;;;0.82;;
27408;SDS011;20413;50.782;7.152;2023-03-23T07:48:38;3.47;;;1.00;;
27408;SDS011;20413;50.782;7.152;2023-03-23T07:51:05;1.98;;;0.73;;
27408;SDS011;20413;50.782;7.152;2023-03-23T07:53:32;1.73;;;1.00;;
27408;SDS011;20413;50.782;7.152;2023-03-23T07:55:58;0.80;;;0.80;;
27408;SDS011;20413;50.782;7.152;2023-03-23T07:58:24;3.53;;;1.02;;
27408;SDS011;20413;50.782;7.152;2023-03-23T08:00:51;3.03;;;1.08;;
27408;SDS011;20413;50.782;7.152;2023-03-23T08:03:17;2.53;;;0.87;;
27408;SDS011;20413;50.782;7.152;2023-03-23T08:05:44;0.90;;;0.80;;
27408;SDS011;20413;50.782;7.152;2023-03-23T08:08:10;2.03;;;0.80;;
27408;SDS011;20413;50.782;7.152;2023-03-23T08:10:37;2.55;;;0.70;;
27408;SDS011;20413;50.782;7.152;2023-03-23T08:13:03;6.07;;;0.90;;
27408;SDS011;20413;50.782;7.152;2023-03-23T08:15:30;3.70;;;0.95;;
27408;SDS011;20413;50.782;7.152;2023-03-23T08:17:57;3.30;;;0.70;;
27408;SDS011;20413;50.782;7.152;2023-03-23T08:20:25;4.30;;;0.80;;
27408;SDS011;20413;50.782;7.152;2023-03-23T08:22:52;2.20;;;0.80;;
27408;SDS011;20413;50.782;7.152;2023-03-23T08:25:20;2.00;;;0.90;;
27408;SDS011;20413;50.782;7.152;2023-03-23T08:27:46;4.95;;;0.80;;
27408;SDS011;20413;50.782;7.152;2023-03-23T08:30:14;3.53;;;1.02;;
27408;SDS011;20413;50.782;7.152;2023-03-23T08:32:40;3.03;;;0.80;;
27408;SDS011;20413;50.782;7.152;2023-03-23T08:35:07;1.60;;;1.00;;
27408;SDS011;20413;50.782;7.152;2023-03-23T08:37:34;3.33;;;0.95;;
27408;SDS011;20413;50.782;7.152;2023-03-23T08:40:00;4.95;;;1.10;;
27408;SDS011;20413;50.782;7.152;2023-03-23T08:42:32;2.55;;;1.08;;
27408;SDS011;20413;50.782;7.152;2023-03-23T08:44:58;1.00;;;0.70;;
27408;SDS011;20413;50.782;7.152;2023-03-23T08:47:24;2.28;;;0.95;;
27408;SDS011;20413;50.782;7.152;2023-03-23T08:49:50;4.88;;;0.80;;
27408;SDS011;20413;50.782;7.152;2023-03-23T08:52:18;3.50;;;1.00;;
27408;SDS011;20413;50.782;7.152;2023-03-23T08:54:44;2.60;;;0.85;;
27408;SDS011;20413;50.782;7.152;2023-03-23T08:57:12;2.90;;;0.90;;
27408;SDS011;20413;50.782;7.152;2023-03-23T08:59:39;2.33;;;0.57;;
27408;SDS011;20413;50.782;7.152;2023-03-23T09:02:06;2.55;;;0.73;;
27408;SDS011;20413;50.782;7.152;2023-03-23T09:04:32;3.50;;;0.95;;
27408;SDS011;20413;50.782;7.152;2023-03-23T09:06:58;1.58;;;1.00;;
27408;SDS011;20413;50.782;7.152;2023-03-23T09:09:25;2.00;;;0.77;;
27408;SDS011;20413;50.782;7.152;2023-03-23T09:11:52;1.13;;;0.82;;
27408;SDS011;20413;50.782;7.152;2023-03-23T09:14:18;3.85;;;0.73;;
27408;SDS011;20413;50.782;7.152;2023-03-23T09:16:44;1.70;;;0.88;;
27408;SDS011;20413;50.782;7.152;2023-03-23T09:19:10;1.52;;;0.80;;
27408;SDS011;20413;50.782;7.152;2023-03-23T09:21:37;2.25;;;0.75;;
27408;SDS011;20413;50.782;7.152;2023-03-23T09:24:04;1.77;;;0.93;;
27408;SDS011;20413;50.782;7.152;2023-03-23T09:26:30;1.83;;;0.80;;
27408;SDS011;20413;50.782;7.152;2023-03-23T09:29:17;2.45;;;0.80;;
27408;SDS011;20413;50.782;7.152;2023-03-23T09:32:02;2.03;;;0.65;;
27408;SDS011;20413;50.782;7.152;2023-03-23T09:34:28;3.83;;;1.05;;
27408;SDS011;20413;50.782;7.152;2023-03-23T09:36:54;2.22;;;0.85;;
27408;SDS011;20413;50.782;7.152;2023-03-23T09:39:20;4.10;;;1.00;;
27408;SDS011;20413;50.782;7.152;2023-03-23T09:47:20;1.55;;;0.55;;
27408;SDS011;20413;50.782;7.152;2023-03-23T09:52:14;3.15;;;1.00;;
27408;SDS011;20413;50.782;7.152;2023-03-23T09:54:42;3.92;;;0.90;;
27408;SDS011;20413;50.782;7.152;2023-03-23T09:57:16;2.28;;;0.70;;
27408;SDS011;20413;50.782;7.152;2023-03-23T09:59:47;2.28;;;0.52;;
27408;SDS011;20413;50.782;7.152;2023-03-23T10:02:16;5.18;;;0.85;;
27408;SDS011;20413;50.782;7.152;2023-03-23T10:04:47;1.10;;;0.57;;
27408;SDS011;20413;50.782;7.152;2023-03-23T10:07:18;2.92;;;0.70;;
27408;SDS011;20413;50.782;7.152;2023-03-23T10:09:46;1.40;;;0.63;;
27408;SDS011;20413;50.782;7.152;2023-03-23T10:12:56;0.45;;;0.45;;
27408;SDS011;20413;50.782;7.152;2023-03-23T10:15:16;4.03;;;0.90;;
27408;SDS011;20413;50.782;7.152;2023-03-23T10:17:45;2.70;;;0.80;;
27408;SDS011;20413;50.782;7.152;2023-03-23T10:22:45;0.95;;;0.50;;
27408;SDS011;20413;50.782;7.152;2023-03-23T10:28:32;1.25;;;0.43;;
27408;SDS011;20413;50.782;7.152;2023-03-23T10:30:27;1.50;;;0.47;;
27408;SDS011;20413;50.782;7.152;2023-03-23T10:38:17;0.95;;;0.30;;
27408;SDS011;20413;50.782;7.152;2023-03-23T10:41:08;0.40;;;0.40;;
27408;SDS011;20413;50.782;7.152;2023-03-23T10:43:30;1.83;;;0.60;;
27408;SDS011;20413;50.782;7.152;2023-03-23T10:45:58;0.65;;;0.40;;
27408;SDS011;20413;50.782;7.152;2023-03-23T10:48:30;1.40;;;0.50;;
27408;SDS011;20413;50.782;7.152;2023-03-23T10:50:57;0.30;;;0.30;;
27408;SDS011;20413;50.782;7.152;2023-03-23T10:53:38;0.80;;;0.47;;
27408;SDS011;20413;50.782;7.152;2023-03-23T10:56:05;2.92;;;0.75;;
27408;SDS011;20413;50.782;7.152;2023-03-23T10:58:32;0.50;;;0.30;;
27408;SDS011;20413;50.782;7.152;2023-03-23T11:00:59;0.82;;;0.40;;
27408;SDS011;20413;50.782;7.152;2023-03-23T11:03:33;1.33;;;0.40;;
27408;SDS011;20413;50.782;7.152;2023-03-23T11:06:05;1.27;;;0.52;;
27408;SDS011;20413;50.782;7.152;2023-03-23T11:08:34;1.90;;;0.80;;
27408;SDS011;20413;50.782;7.152;2023-03-23T11:11:17;0.57;;;0.40;;
27408;SDS011;20413;50.782;7.152;2023-03-23T11:13:44;1.50;;;0.75;;
27408;SDS011;20413;50.782;7.152;2023-03-23T11:16:21;0.90;;;0.50;;
27408;SDS011;20413;50.782;7.152;2023-03-23T11:18:48;0.70;;;0.57;;
27408;SDS011;20413;50.782;7.152;2023-03-23T11:21:14;2.42;;;1.00;;
27408;SDS011;20413;50.782;7.152;2023-03-23T11:23:43;2.53;;;1.53;;
27408;SDS011;20413;50.782;7.152;2023-03-23T11:26:22;2.92;;;1.38;;
27408;SDS011;20413;50.782;7.152;2023-03-23T11:28:55;1.15;;;0.60;;
27408;SDS011;20413;50.782;7.152;2023-03-23T11:31:22;2.03;;;0.57;;
27408;SDS011;20413;50.782;7.152;2023-03-23T11:33:53;1.23;;;0.40;;
27408;SDS011;20413;50.782;7.152;2023-03-23T11:36:21;0.47;;;0.30;;
27408;SDS011;20413;50.782;7.152;2023-03-23T11:38:54;1.42;;;0.45;;
27408;SDS011;20413;50.782;7.152;2023-03-23T11:41:22;1.02;;;0.32;;
27408;SDS011;20413;50.782;7.152;2023-03-23T11:43:50;1.58;;;0.40;;
27408;SDS011;20413;50.782;7.152;2023-03-23T11:48:50;0.75;;;0.30;;
27408;SDS011;20413;50.782;7.152;2023-03-23T11:51:19;3.25;;;0.40;;
27408;SDS011;20413;50.782;7.152;2023-03-23T11:56:25;0.73;;;0.30;;
27408;SDS011;20413;50.782;7.152;2023-03-23T11:58:53;1.65;;;0.38;;
27408;SDS011;20413;50.782;7.152;2023-03-23T12:06:37;1.15;;;0.80;;
27408;SDS011;20413;50.782;7.152;2023-03-23T12:24:32;1.15;;;0.52;;
27408;SDS011;20413;50.782;7.152;2023-03-23T12:27:14;1.17;;;0.50;;
27408;SDS011;20413;50.782;7.152;2023-03-23T12:29:44;2.55;;;0.77;;
27408;SDS011;20413;50.782;7.152;2023-03-23T12:32:30;4.35;;;0.80;;
27408;SDS011;20413;50.782;7.152;2023-03-23T12:37:51;1.23;;;0.60;;
27408;SDS011;20413;50.782;7.152;2023-03-23T12:42:55;2.63;;;0.80;;
27408;SDS011;20413;50.782;7.152;2023-03-23T12:47:55;2.78;;;1.05;;
27408;SDS011;20413;50.782;7.152;2023-03-23T12:50:26;1.40;;;0.70;;
27408;SDS011;20413;50.782;7.152;2023-03-23T12:55:21;3.92;;;0.95;;
27408;SDS011;20413;50.782;7.152;2023-03-23T12:58:31;4.38;;;1.00;;
27408;SDS011;20413;50.782;7.152;2023-03-23T13:00:52;2.67;;;0.77;;
27408;SDS011;20413;50.782;7.152;2023-03-23T13:03:33;1.33;;;0.60;;
27408;SDS011;20413;50.782;7.152;2023-03-23T13:06:08;1.27;;;0.60;;
27408;SDS011;20413;50.782;7.152;2023-03-23T13:08:37;1.45;;;0.70;;
27408;SDS011;20413;50.782;7.152;2023-03-23T13:11:08;1.08;;;0.70;;
27408;SDS011;20413;50.782;7.152;2023-03-23T13:16:16;2.17;;;0.73;;
27408;SDS011;20413;50.782;7.152;2023-03-23T13:21:30;1.40;;;0.80;;
27408;SDS011;20413;50.782;7.152;2023-03-23T13:24:01;3.88;;;0.73;;
27408;SDS011;20413;50.782;7.152;2023-03-23T13:26:29;3.22;;;0.70;;
27408;SDS011;20413;50.782;7.152;2023-03-23T13:28:56;3.40;;;0.90;;
27408;SDS011;20413;50.782;7.152;2023-03-23T13:31:25;1.08;;;0.70;;
27408;SDS011;20413;50.782;7.152;2023-03-23T13:36:44;2.45;;;0.90;;
27408;SDS011;20413;50.782;7.152;2023-03-23T13:39:27;3.28;;;1.05;;
27408;SDS011;20413;50.782;7.152;2023-03-23T13:44:38;3.08;;;1.05;;
27408;SDS011;20413;50.782;7.152;2023-03-23T13:47:14;2.72;;;1.05;;
27408;SDS011;20413;50.782;7.152;2023-03-23T13:52:21;2.70;;;0.90;;
27408;SDS011;20413;50.782;7.152;2023-03-23T13:54:47;1.38;;;0.82;;
27408;SDS011;20413;50.782;7.152;2023-03-23T13:57:26;3.33;;;1.10;;
27408;SDS011;20413;50.782;7.152;2023-03-23T13:59:59;3.17;;;1.00;;
27408;SDS011;20413;50.782;7.152;2023-03-23T14:02:40;6.68;;;1.75;;
27408;SDS011;20413;50.782;7.152;2023-03-23T14:05:19;2.85;;;1.35;;
27408;SDS011;20413;50.782;7.152;2023-03-23T14:07:51;2.80;;;0.68;;
27408;SDS011;20413;50.782;7.152;2023-03-23T14:12:43;5.45;;;1.20;;
27408;SDS011;20413;50.782;7.152;2023-03-23T14:15:11;3.40;;;1.05;;
27408;SDS011;20413;50.782;7.152;2023-03-23T14:17:42;3.53;;;0.68;;
27408;SDS011;20413;50.782;7.152;2023-03-23T14:23:04;4.18;;;1.30;;
27408;SDS011;20413;50.782;7.152;2023-03-23T14:25:32;4.70;;;1.13;;
27408;SDS011;20413;50.782;7.152;2023-03-23T14:28:01;10.57;;;2.33;;
27408;SDS011;20413;50.782;7.152;2023-03-23T14:30:28;8.07;;;2.40;;
27408;SDS011;20413;50.782;7.152;2023-03-23T14:33:06;3.72;;;1.30;;
27408;SDS011;20413;50.782;7.152;2023-03-23T14:35:34;4.80;;;1.73;;
27408;SDS011;20413;50.782;7.152;2023-03-23T14:38:01;4.25;;;1.35;;
27408;SDS011;20413;50.782;7.152;2023-03-23T14:40:28;2.10;;;1.15;;
27408;SDS011;20413;50.782;7.152;2023-03-23T14:42:55;3.65;;;0.90;;
27408;SDS011;20413;50.782;7.152;2023-03-23T14:45:21;3.28;;;1.10;;
27408;SDS011;20413;50.782;7.152;2023-03-23T14:47:52;3.35;;;1.00;;
27408;SDS011;20413;50.782;7.152;2023-03-23T14:50:38;5.88;;;1.17;;
27408;SDS011;20413;50.782;7.152;2023-03-23T14:55:50;4.13;;;1.50;;
27408;SDS011;20413;50.782;7.152;2023-03-23T14:58:17;2.57;;;1.00;;
27408;SDS011;20413;50.782;7.152;2023-03-23T15:00:45;2.65;;;0.80;;
27408;SDS011;20413;50.782;7.152;2023-03-23T15:03:14;4.03;;;1.10;;
27408;SDS011;20413;50.782;7.152;2023-03-23T15:05:42;2.80;;;1.10;;
27408;SDS011;20413;50.782;7.152;2023-03-23T15:08:15;2.90;;;1.63;;
27408;SDS011;20413;50.782;7.152;2023-03-23T15:10:50;2.22;;;1.20;;
27408;SDS011;20413;50.782;7.152;2023-03-23T15:13:16;7.90;;;1.52;;
27408;SDS011;20413;50.782;7.152;2023-03-23T15:15:42;3.58;;;1.25;;
27408;SDS011;20413;50.782;7.152;2023-03-23T15:20:55;2.72;;;0.70;;
27408;SDS011;20413;50.782;7.152;2023-03-23T15:23:22;2.58;;;0.85;;
27408;SDS011;20413;50.782;7.152;2023-03-23T15:25:52;2.97;;;1.10;;
27408;SDS011;20413;50.782;7.152;2023-03-23T15:28:19;1.67;;;0.88;;
27408;SDS011;20413;50.782;7.152;2023-03-23T15:30:53;5.05;;;0.98;;
27408;SDS011;20413;50.782;7.152;2023-03-23T15:33:21;1.00;;;0.70;;
27408;SDS011;20413;50.782;7.152;2023-03-23T15:35:51;1.35;;;1.02;;
27408;SDS011;20413;50.782;7.152;2023-03-23T15:38:21;2.45;;;0.80;;
27408;SDS011;20413;50.782;7.152;2023-03-23T15:40:49;3.25;;;0.77;;
27408;SDS011;20413;50.782;7.152;2023-03-23T15:43:26;4.50;;;1.15;;
27408;SDS011;20413;50.782;7.152;2023-03-23T15:50:56;5.03;;;1.00;;
27408;SDS011;20413;50.782;7.152;2023-03-23T15:53:26;4.90;;;1.33;;
27408;SDS011;20413;50.782;7.152;2023-03-23T15:55:52;5.07;;;0.90;;
27408;SDS011;20413;50.782;7.152;2023-03-23T15:58:18;2.72;;;1.00;;
27408;SDS011;20413;50.782;7.152;2023-03-23T16:00:45;5.97;;;0.93;;
27408;SDS011;20413;50.782;7.152;2023-03-23T16:03:12;3.03;;;0.82;;
27408;SDS011;20413;50.782;7.152;2023-03-23T16:05:41;7.38;;;1.60;;
27408;SDS011;20413;50.782;7.152;2023-03-23T16:08:08;4.28;;;1.00;;
27408;SDS011;20413;50.782;7.152;2023-03-23T16:10:35;2.80;;;1.45;;
27408;SDS011;20413;50.782;7.152;2023-03-23T16:13:01;4.32;;;1.40;;
27408;SDS011;20413;50.782;7.152;2023-03-23T16:15:29;5.32;;;1.27;;
27408;SDS011;20413;50.782;7.152;2023-03-23T16:17:55;5.70;;;1.27;;
27408;SDS011;20413;50.782;7.152;2023-03-23T16:20:22;3.33;;;1.27;;
27408;SDS011;20413;50.782;7.152;2023-03-23T16:22:48;4.63;;;0.98;;
27408;SDS011;20413;50.782;7.152;2023-03-23T16:25:15;3.25;;;1.10;;
27408;SDS011;20413;50.782;7.152;2023-03-23T16:27:41;2.88;;;1.13;;
27408;SDS011;20413;50.782;7.152;2023-03-23T16:30:10;5.32;;;1.63;;
27408;SDS011;20413;50.782;7.152;2023-03-23T16:32:37;4.70;;;1.23;;
27408;SDS011;20413;50.782;7.152;2023-03-23T16:35:03;1.75;;;0.90;;
27408;SDS011;20413;50.782;7.152;2023-03-23T16:37:29;3.47;;;1.40;;